Time;durP1;ratioP1;P1;durP2;ratioP2;P2;SDS_P1;SDS_P2;PMS_P1;PMS_P2;Temp;Humidity;BMP_temperature;BMP_pressure;BME280_temperature;BME280_humidity;BME280_pressure;Samples;Min_cycle;Max_cycle;Signal;HPM_P1;HPM_P2
2023/03/02 00:00:45;;;;;;;;;25.00;22.00;25.60;34.50;;;;;;109543;1256;49891;-66
2023/03/02 00:03:17;;;;;;;;;25.00;21.50;25.60;34.40;;;;;;109619;1257;48890;-67
2023/03/02 00:05:46;;;;;;;;;27.00;24.00;25.50;34.60;;;;;;109564;1261;45756;-66
2023/03/02 00:08:14;;;;;;;;;24.00;19.00;25.50;34.70;;;;;;109588;1255;56344;-66
2023/03/02 00:10:41;;;;;;;;;26.00;24.00;25.50;34.80;;;;;;109825;1255;53490;-67
2023/03/02 00:13:07;;;;;;;;;27.00;22.00;25.50;35.10;;;;;;109644;1260;49941;-68
2023/03/02 00:15:34;;;;;;;;;24.00;23.00;25.50;35.20;;;;;;109635;1260;49281;-68
2023/03/02 00:18:00;;;;;;;;;24.00;22.00;25.60;35.40;;;;;;109600;1255;46244;-65
2023/03/02 00:20:26;;;;;;;;;18.00;17.00;25.60;35.40;;;;;;109586;1259;56155;-68
2023/03/02 00:22:52;;;;;;;;;36.00;23.00;25.60;35.70;;;;;;109635;1255;54768;-67
2023/03/02 00:25:19;;;;;;;;;23.67;22.00;25.70;36.20;;;;;;109588;1257;49714;-68
2023/03/02 00:27:45;;;;;;;;;24.00;21.00;25.70;35.90;;;;;;109604;1260;49541;-68
2023/03/02 00:30:13;;;;;;;;;24.00;21.00;25.80;36.10;;;;;;109575;1255;46117;-67
2023/03/02 00:32:39;;;;;;;;;24.00;22.00;25.90;36.00;;;;;;109713;1255;55936;-67
2023/03/02 00:35:06;;;;;;;;;24.00;22.00;25.90;36.00;;;;;;109556;1259;54025;-68
2023/03/02 00:37:35;;;;;;;;;20.50;19.50;26.00;36.00;;;;;;109551;1255;50170;-65
2023/03/02 00:40:05;;;;;;;;;20.00;18.50;26.10;35.90;;;;;;109562;1255;49196;-65
2023/03/02 00:42:32;;;;;;;;;24.00;22.00;26.10;36.00;;;;;;109667;1255;45916;-65
2023/03/02 00:45:00;;;;;;;;;27.50;24.00;26.20;35.90;;;;;;109620;1255;55846;-67
2023/03/02 00:47:28;;;;;;;;;23.00;22.00;26.40;37.10;;;;;;109587;1255;53707;-67
2023/03/02 00:49:55;;;;;;;;;26.00;22.00;26.40;37.20;;;;;;109658;1255;49128;-68
2023/03/02 00:52:21;;;;;;;;;29.00;25.00;26.50;36.60;;;;;;109801;1255;49253;-68
2023/03/02 00:54:48;;;;;;;;;24.33;23.67;26.50;36.50;;;;;;109782;1255;45955;-68
2023/03/02 00:57:14;;;;;;;;;29.00;22.50;26.60;36.30;;;;;;109738;1258;55464;-69
2023/03/02 00:59:40;;;;;;;;;23.00;20.50;26.60;36.10;;;;;;109750;1260;54038;-67
2023/03/02 01:02:06;;;;;;;;;27.00;24.00;26.70;36.10;;;;;;109709;1261;49217;-66
2023/03/02 01:04:38;;;;;;;;;23.50;20.00;26.70;36.00;;;;;;109716;1259;49661;-66
2023/03/02 01:07:13;;;;;;;;;23.50;20.50;26.80;35.90;;;;;;109740;1260;45925;-67
2023/03/02 01:09:41;;;;;;;;;22.00;19.00;26.80;35.80;;;;;;109774;1255;56174;-68
2023/03/02 01:12:10;;;;;;;;;23.00;21.00;26.80;35.70;;;;;;109788;1260;53312;-68
2023/03/02 01:14:38;;;;;;;;;24.50;22.00;26.90;35.60;;;;;;109778;1256;49002;-68
2023/03/02 01:17:05;;;;;;;;;26.00;22.50;26.90;35.50;;;;;;109721;1261;48920;-68
2023/03/02 01:19:32;;;;;;;;;25.00;19.50;27.00;35.40;;;;;;109677;1255;45415;-68
2023/03/02 01:21:58;;;;;;;;;24.00;20.50;27.00;35.50;;;;;;109769;1255;55903;-67
2023/03/02 01:24:25;;;;;;;;;22.00;17.00;27.00;35.30;;;;;;109626;1255;53458;-66
2023/03/02 01:26:51;;;;;;;;;24.00;20.00;27.00;35.40;;;;;;109663;1255;49228;-67
2023/03/02 01:29:18;;;;;;;;;20.00;18.00;27.00;35.10;;;;;;109806;1255;49448;-67
2023/03/02 01:31:44;;;;;;;;;24.50;22.00;27.00;35.20;;;;;;109863;1259;46136;-66
2023/03/02 01:34:10;;;;;;;;;19.50;18.00;27.00;35.00;;;;;;109775;1255;55842;-66
2023/03/02 01:36:36;;;;;;;;;21.00;18.00;27.00;35.10;;;;;;109647;1255;54354;-67
2023/03/02 01:39:03;;;;;;;;;25.00;17.00;27.00;35.00;;;;;;109643;1258;49763;-66
2023/03/02 01:41:30;;;;;;;;;24.00;21.00;27.00;34.70;;;;;;109790;1255;50204;-67
2023/03/02 01:43:56;;;;;;;;;18.00;15.50;27.00;34.60;;;;;;109646;1259;46034;-67
2023/03/02 01:46:26;;;;;;;;;24.00;21.50;27.00;34.60;;;;;;109888;1255;56029;-66
2023/03/02 01:49:05;;;;;;;;;22.00;20.00;27.00;34.60;;;;;;109854;1255;53649;-66
2023/03/02 01:51:34;;;;;;;;;20.00;18.67;26.90;34.40;;;;;;109773;1256;48977;-66
2023/03/02 01:54:05;;;;;;;;;21.00;20.00;26.90;34.40;;;;;;109629;1260;49862;-68
2023/03/02 01:56:35;;;;;;;;;21.00;20.00;26.90;34.40;;;;;;109750;1261;45429;-67
2023/03/02 01:59:05;;;;;;;;;19.00;18.00;26.90;34.40;;;;;;109940;1256;55206;-67
2023/03/02 02:01:34;;;;;;;;;21.00;19.00;26.90;34.40;;;;;;110029;1261;54655;-68
2023/03/02 02:04:00;;;;;;;;;25.00;22.00;26.80;34.20;;;;;;109785;1256;49390;-65
2023/03/02 02:06:47;;;;;;;;;18.50;17.50;26.80;34.20;;;;;;109816;1255;49548;-66
2023/03/02 02:09:16;;;;;;;;;20.00;19.00;26.80;34.10;;;;;;109845;1260;45287;-65
2023/03/02 02:11:43;;;;;;;;;22.00;20.00;26.80;34.10;;;;;;110108;1255;56735;-65
2023/03/02 02:14:09;;;;;;;;;25.00;24.00;26.80;34.10;;;;;;109631;1255;54447;-64
2023/03/02 02:16:36;;;;;;;;;24.00;20.50;26.80;34.30;;;;;;109699;1255;50184;-65
2023/03/02 02:19:27;;;;;;;;;22.00;19.50;26.70;34.20;;;;;;109559;1257;49242;-64
2023/03/02 02:21:53;;;;;;;;;23.00;20.00;26.70;34.10;;;;;;109517;1260;45471;-64
2023/03/02 02:24:43;;;;;;;;;27.00;21.00;26.60;34.00;;;;;;109662;1255;55669;-65
2023/03/02 02:27:10;;;;;;;;;24.00;21.00;26.50;33.90;;;;;;109550;1257;53279;-63
2023/03/02 02:29:44;;;;;;;;;31.00;25.00;26.50;33.90;;;;;;109671;1259;49697;-65
2023/03/02 02:32:11;;;;;;;;;25.00;23.00;26.50;33.90;;;;;;109685;1257;49504;-66
2023/03/02 02:35:02;;;;;;;;;26.00;23.00;26.40;33.80;;;;;;109582;1260;45428;-65
2023/03/02 02:37:41;;;;;;;;;21.50;18.00;26.40;33.80;;;;;;109559;1257;55746;-65
2023/03/02 02:40:14;;;;;;;;;23.00;21.00;26.30;33.90;;;;;;109609;1255;54572;-66
2023/03/02 02:42:44;;;;;;;;;23.00;21.50;26.30;33.80;;;;;;109936;1255;49500;-66
2023/03/02 02:45:25;;;;;;;;;27.50;23.00;26.20;34.30;;;;;;109748;1261;48948;-66
2023/03/02 02:47:52;;;;;;;;;19.00;18.00;26.20;33.80;;;;;;109585;1255;45651;-65
2023/03/02 02:50:23;;;;;;;;;26.50;21.50;26.10;33.80;;;;;;109541;1257;55107;-66
2023/03/02 02:53:03;;;;;;;;;22.00;20.00;26.10;34.00;;;;;;109854;1255;54250;-67
2023/03/02 02:55:30;;;;;;;;;24.00;22.00;26.10;33.90;;;;;;109626;1259;50739;-66
2023/03/02 02:57:58;;;;;;;;;30.50;27.00;26.00;33.80;;;;;;109571;1261;49290;-66
2023/03/02 03:00:25;;;;;;;;;29.00;24.50;26.00;33.90;;;;;;109575;1257;46158;-66
2023/03/02 03:03:01;;;;;;;;;27.00;23.00;25.90;34.00;;;;;;109581;1259;56032;-67
2023/03/02 03:05:27;;;;;;;;;28.00;21.00;25.90;33.90;;;;;;109725;1259;54342;-67
2023/03/02 03:08:06;;;;;;;;;23.50;22.50;25.80;33.90;;;;;;109623;1255;49586;-67
2023/03/02 03:10:38;;;;;;;;;27.00;23.00;25.80;34.50;;;;;;109686;1259;49796;-67
2023/03/02 03:13:10;;;;;;;;;27.00;22.00;25.70;34.10;;;;;;109612;1260;47015;-67
2023/03/02 03:15:36;;;;;;;;;26.00;22.00;25.60;33.90;;;;;;109520;1261;56322;-66
2023/03/02 03:18:03;;;;;;;;;;;25.60;33.90;;;;;;109529;1260;54892;-67
2023/03/02 03:20:29;;;;;;;;;32.50;28.00;25.50;33.90;;;;;;109660;1255;49199;-68
2023/03/02 03:22:58;;;;;;;;;23.33;22.00;25.50;34.20;;;;;;110159;1256;49686;-67
2023/03/02 03:25:26;;;;;;;;;29.00;23.00;25.40;34.00;;;;;;109808;1255;46090;-66
2023/03/02 03:27:53;;;;;;;;;30.00;26.00;25.40;34.00;;;;;;109825;1255;56694;-66
2023/03/02 03:30:19;;;;;;;;;26.50;23.50;25.30;34.00;;;;;;109849;1256;54042;-68
2023/03/02 03:32:45;;;;;;;;;27.50;23.00;25.30;34.00;;;;;;110086;1255;49674;-65
2023/03/02 03:35:12;;;;;;;;;30.00;24.00;25.20;34.00;;;;;;109830;1258;49599;-65
2023/03/02 03:37:40;;;;;;;;;30.00;25.00;25.20;34.00;;;;;;109879;1257;45715;-65
2023/03/02 03:40:08;;;;;;;;;24.00;23.00;25.20;34.00;;;;;;109628;1255;55558;-66
2023/03/02 03:42:36;;;;;;;;;26.00;24.00;25.10;34.00;;;;;;109608;1255;53927;-66
2023/03/02 03:45:04;;;;;;;;;26.00;25.00;25.10;34.50;;;;;;109652;1255;50446;-67
2023/03/02 03:47:30;;;;;;;;;32.00;25.00;25.00;34.10;;;;;;109740;1255;49446;-65
2023/03/02 03:49:56;;;;;;;;;26.00;22.00;24.90;34.40;;;;;;109702;1260;45308;-66
2023/03/02 03:52:29;;;;;;;;;31.00;28.00;24.90;34.30;;;;;;109799;1260;55490;-66
2023/03/02 03:55:00;;;;;;;;;25.50;24.50;24.90;34.60;;;;;;109603;1255;53430;-66
2023/03/02 03:57:27;;;;;;;;;31.50;25.00;24.80;34.50;;;;;;109821;1255;49973;-67
2023/03/02 03:59:54;;;;;;;;;27.00;23.00;24.70;34.50;;;;;;109909;1255;49900;-66
2023/03/02 04:02:21;;;;;;;;;28.50;23.00;24.60;34.30;;;;;;109843;1260;45988;-67
2023/03/02 04:04:47;;;;;;;;;29.00;23.33;24.60;34.40;;;;;;109910;1260;55472;-66
2023/03/02 04:07:13;;;;;;;;;25.50;23.50;24.50;34.30;;;;;;109751;1255;54113;-64
2023/03/02 04:09:40;;;;;;;;;25.00;21.00;24.50;34.40;;;;;;109879;1255;49031;-65
2023/03/02 04:12:07;;;;;;;;;27.50;24.50;24.50;34.70;;;;;;110228;1255;49597;-65
2023/03/02 04:14:34;;;;;;;;;24.00;23.00;24.40;34.50;;;;;;109942;1259;45706;-65
2023/03/02 04:17:00;;;;;;;;;30.00;27.00;24.40;34.70;;;;;;109891;1256;56409;-64
2023/03/02 04:19:26;;;;;;;;;29.00;23.00;24.30;34.40;;;;;;109964;1260;53799;-64
2023/03/02 04:21:53;;;;;;;;;29.00;25.00;24.30;34.50;;;;;;109911;1260;50884;-65
2023/03/02 04:24:21;;;;;;;;;30.00;25.00;24.20;34.40;;;;;;109634;1257;48917;-66
2023/03/02 04:26:48;;;;;;;;;28.33;27.00;24.20;34.70;;;;;;109842;1260;45831;-66
2023/03/02 04:29:15;;;;;;;;;32.00;26.00;24.10;34.50;;;;;;109846;1255;55455;-66
2023/03/02 04:31:42;;;;;;;;;27.00;24.00;24.10;34.50;;;;;;109930;1255;53748;-65
2023/03/02 04:34:09;;;;;;;;;30.00;28.00;24.10;34.70;;;;;;109797;1260;50415;-66
2023/03/02 04:36:37;;;;;;;;;30.00;25.00;24.00;34.70;;;;;;109755;1260;50453;-66
2023/03/02 04:39:05;;;;;;;;;23.00;22.00;24.00;34.70;;;;;;109844;1260;46153;-67
2023/03/02 04:41:32;;;;;;;;;26.00;23.33;23.90;34.70;;;;;;109955;1260;55716;-66
2023/03/02 04:43:58;;;;;;;;;28.00;25.50;23.80;34.70;;;;;;109946;1260;54287;-67
2023/03/02 04:46:26;;;;;;;;;26.50;23.00;23.80;34.70;;;;;;109809;1260;49396;-67
2023/03/02 04:48:53;;;;;;;;;28.50;26.00;23.80;35.00;;;;;;109908;1260;49115;-67
2023/03/02 04:51:22;;;;;;;;;32.50;24.00;23.80;34.90;;;;;;109899;1255;45402;-67
2023/03/02 04:53:51;;;;;;;;;30.00;24.00;23.70;34.80;;;;;;109696;1255;55854;-66
2023/03/02 04:56:17;;;;;;;;;27.67;23.33;23.70;35.40;;;;;;109673;1255;53859;-66
2023/03/02 04:58:43;;;;;;;;;26.00;23.00;23.60;34.80;;;;;;109643;1260;50073;-66
2023/03/02 05:01:11;;;;;;;;;31.00;29.00;23.60;34.90;;;;;;109648;1256;50231;-67
2023/03/02 05:03:37;;;;;;;;;30.00;24.00;23.60;34.90;;;;;;109736;1258;45685;-64
2023/03/02 05:06:04;;;;;;;;;29.50;25.50;23.50;34.90;;;;;;109585;1257;55593;-64
2023/03/02 05:08:30;;;;;;;;;29.00;26.50;23.50;34.90;;;;;;109603;1258;53514;-63
2023/03/02 05:10:57;;;;;;;;;32.00;29.00;23.50;35.80;;;;;;109642;1255;49893;-67
2023/03/02 05:13:27;;;;;;;;;30.00;28.00;23.40;37.00;;;;;;109616;1257;49388;-64
2023/03/02 05:15:56;;;;;;;;;35.00;31.00;23.40;37.00;;;;;;109696;1255;46597;-63
2023/03/02 05:18:23;;;;;;;;;29.00;27.00;23.40;37.60;;;;;;109733;1260;55154;-62
2023/03/02 05:20:51;;;;;;;;;38.00;33.00;23.40;37.30;;;;;;109685;1259;53677;-64
2023/03/02 05:23:22;;;;;;;;;56.50;45.50;23.40;37.40;;;;;;109594;1260;50299;-69
2023/03/02 05:25:57;;;;;;;;;60.00;45.00;23.40;34.10;;;;;;109602;1260;49548;-69
2023/03/02 05:28:24;;;;;;;;;56.00;45.00;23.40;31.10;;;;;;109644;1260;45368;-68
2023/03/02 05:30:51;;;;;;;;;55.00;44.00;23.30;30.30;;;;;;109657;1259;55368;-69
2023/03/02 05:33:19;;;;;;;;;60.00;48.00;23.10;30.00;;;;;;109641;1257;54270;-69
2023/03/02 05:35:45;;;;;;;;;56.00;46.00;22.90;29.90;;;;;;109644;1255;48898;-68
2023/03/02 05:38:12;;;;;;;;;63.00;49.00;22.70;29.90;;;;;;109611;1255;50443;-68
2023/03/02 05:40:39;;;;;;;;;61.00;46.00;22.50;30.00;;;;;;109657;1259;45151;-74
2023/03/02 05:43:05;;;;;;;;;57.00;43.00;22.30;30.00;;;;;;109729;1260;56126;-69
2023/03/02 05:45:34;;;;;;;;;47.67;39.00;22.20;31.60;;;;;;109690;1260;54396;-79
2023/03/02 05:48:00;;;;;;;;;50.50;39.00;22.10;33.40;;;;;;109874;1255;49289;-70
2023/03/02 05:50:26;;;;;;;;;41.00;34.00;22.10;35.90;;;;;;109754;1255;49706;-70
2023/03/02 05:52:53;;;;;;;;;40.00;33.00;22.10;36.70;;;;;;109707;1255;45782;-74
2023/03/02 05:55:19;;;;;;;;;45.50;35.50;22.20;37.60;;;;;;109816;1255;55610;-66
2023/03/02 05:57:48;;;;;;;;;38.00;32.00;22.30;37.90;;;;;;109815;1255;54596;-72
2023/03/02 06:00:15;;;;;;;;;36.00;32.00;22.30;38.10;;;;;;110062;1259;48935;-72
2023/03/02 06:02:41;;;;;;;;;50.00;37.00;22.40;38.00;;;;;;110376;1259;50391;-67
2023/03/02 06:05:12;;;;;;;;;42.00;32.50;22.60;37.70;;;;;;109791;1257;45288;-71
2023/03/02 06:07:38;;;;;;;;;41.50;32.00;22.70;37.40;;;;;;109734;1255;55220;-70
2023/03/02 06:10:06;;;;;;;;;38.00;33.00;22.80;37.40;;;;;;109844;1257;53754;-72
2023/03/02 06:12:33;;;;;;;;;41.00;33.00;22.90;37.10;;;;;;110122;1260;50235;-70
2023/03/02 06:14:59;;;;;;;;;39.50;32.00;23.00;36.90;;;;;;109671;1260;50414;-65
2023/03/02 06:17:26;;;;;;;;;50.00;38.00;23.10;37.00;;;;;;109755;1255;46436;-69
2023/03/02 06:19:52;;;;;;;;;49.00;38.00;23.20;37.50;;;;;;109897;1255;57449;-66
2023/03/02 06:22:18;;;;;;;;;56.00;41.00;23.20;38.90;;;;;;110234;1255;53931;-67
2023/03/02 06:24:45;;;;;;;;;52.50;38.50;23.30;39.70;;;;;;109809;1255;50417;-67
2023/03/02 06:27:12;;;;;;;;;50.67;35.00;23.40;39.40;;;;;;109839;1261;49229;-66
2023/03/02 06:29:38;;;;;;;;;;;23.50;39.50;;;;;;109740;1259;46776;-68
2023/03/02 06:32:05;;;;;;;;;61.50;43.50;23.60;39.50;;;;;;109813;1255;56190;-66
2023/03/02 06:34:31;;;;;;;;;54.50;39.50;23.60;39.50;;;;;;109832;1259;53319;-68
2023/03/02 06:36:57;;;;;;;;;51.50;37.50;23.70;39.60;;;;;;109890;1259;49505;-68
2023/03/02 06:39:24;;;;;;;;;53.00;41.00;23.80;39.30;;;;;;109763;1255;49180;-71
2023/03/02 06:41:50;;;;;;;;;50.00;38.00;23.80;39.00;;;;;;110150;1257;46016;-69
2023/03/02 06:44:17;;;;;;;;;49.00;36.00;23.80;38.90;;;;;;109750;1255;56239;-69
2023/03/02 06:46:43;;;;;;;;;53.50;40.00;23.90;38.80;;;;;;109656;1257;54731;-70
2023/03/02 06:49:10;;;;;;;;;54.00;41.50;23.90;38.70;;;;;;109698;1255;49468;-70
2023/03/02 06:51:37;;;;;;;;;55.50;42.25;24.00;38.70;;;;;;109642;1257;49846;-71
2023/03/02 06:54:06;;;;;;;;;46.00;35.50;24.00;38.60;;;;;;109645;1255;45319;-70
2023/03/02 06:56:33;;;;;;;;;51.50;40.00;24.00;38.80;;;;;;109649;1260;56081;-69
2023/03/02 06:59:00;;;;;;;;;47.00;37.00;24.00;38.50;;;;;;109696;1257;54111;-72
2023/03/02 07:01:26;;;;;;;;;50.00;36.50;24.00;38.60;;;;;;109900;1260;49257;-70
2023/03/02 07:03:52;;;;;;;;;48.00;36.00;24.00;38.70;;;;;;109762;1260;48978;-70
2023/03/02 07:06:18;;;;;;;;;48.50;37.00;24.00;38.50;;;;;;109574;1255;162597;-70
2023/03/02 07:08:45;;;;;;;;;51.00;38.00;24.00;38.50;;;;;;109651;1260;56440;-69
2023/03/02 07:11:11;;;;;;;;;43.00;35.00;24.00;38.20;;;;;;109683;1256;54482;-70
2023/03/02 07:13:38;;;;;;;;;45.50;37.00;24.00;38.30;;;;;;109758;1255;50249;-70
2023/03/02 07:16:09;;;;;;;;;42.00;34.33;24.00;38.30;;;;;;109666;1255;50483;-70
2023/03/02 07:18:36;;;;;;;;;47.00;35.50;24.00;38.00;;;;;;109732;1260;45869;-71
2023/03/02 07:21:03;;;;;;;;;51.50;39.50;24.00;38.10;;;;;;109714;1255;55822;-68
2023/03/02 07:23:31;;;;;;;;;45.50;35.50;24.00;38.10;;;;;;109881;1260;53402;-70
2023/03/02 07:25:58;;;;;;;;;43.00;34.00;24.00;38.10;;;;;;109782;1260;49698;-68
2023/03/02 07:28:24;;;;;;;;;43.00;36.50;24.00;38.10;;;;;;109696;1257;49107;-70
2023/03/02 07:30:52;;;;;;;;;43.00;33.00;24.00;38.40;;;;;;109639;1256;46301;-69
2023/03/02 07:33:21;;;;;;;;;44.50;34.50;24.00;38.10;;;;;;109785;1260;56203;-69
2023/03/02 07:35:47;;;;;;;;;40.50;34.00;24.00;38.10;;;;;;109680;1260;54090;-70
2023/03/02 07:38:16;;;;;;;;;46.00;35.00;24.00;38.20;;;;;;109580;1257;51156;-71
2023/03/02 07:40:43;;;;;;;;;41.00;34.00;24.00;38.00;;;;;;109535;1260;49331;-70
2023/03/02 07:43:09;;;;;;;;;;;24.00;38.10;;;;;;109671;1257;45703;-71
2023/03/02 07:45:37;;;;;;;;;40.00;34.00;24.00;38.10;;;;;;109606;1255;55782;-70
2023/03/02 07:48:04;;;;;;;;;42.00;31.50;24.00;38.20;;;;;;109796;1259;53982;-69
2023/03/02 07:50:31;;;;;;;;;48.00;35.50;24.00;38.00;;;;;;109670;1261;49101;-70
2023/03/02 07:52:57;;;;;;;;;45.50;34.00;24.00;37.90;;;;;;109689;1255;50277;-70
2023/03/02 07:55:24;;;;;;;;;45.00;35.00;24.00;37.90;;;;;;109563;1260;46647;-70
2023/03/02 07:57:50;;;;;;;;;40.00;32.50;24.00;37.80;;;;;;109928;1255;55798;-70
2023/03/02 08:00:17;;;;;;;;;45.00;34.00;24.00;37.90;;;;;;109628;1257;54408;-71
2023/03/02 08:02:43;;;;;;;;;37.50;31.50;24.00;37.70;;;;;;109764;1255;50021;-70
2023/03/02 08:05:11;;;;;;;;;42.00;31.50;24.00;37.70;;;;;;109639;1260;49618;-71
2023/03/02 08:07:37;;;;;;;;;41.50;32.00;24.00;38.10;;;;;;109615;1258;45716;-67
2023/03/02 08:10:04;;;;;;;;;41.50;33.00;24.00;37.60;;;;;;109756;1255;55410;-66
2023/03/02 08:12:30;;;;;;;;;;;24.00;38.00;;;;;;109859;1260;53354;-73
2023/03/02 08:14:56;;;;;;;;;47.00;36.00;24.10;37.80;;;;;;109620;1260;49964;-72
2023/03/02 08:17:22;;;;;;;;;41.00;34.00;24.10;37.70;;;;;;109593;1257;49069;-72
2023/03/02 08:19:49;;;;;;;;;40.00;35.00;24.10;37.60;;;;;;109721;1255;45688;-70
2023/03/02 08:22:15;;;;;;;;;43.00;33.00;24.10;37.60;;;;;;110017;1260;55001;-76
2023/03/02 08:24:41;;;;;;;;;41.00;31.00;24.10;37.70;;;;;;109774;1260;54712;-72
2023/03/02 08:27:12;;;;;;;;;38.50;30.50;24.20;37.70;;;;;;109824;1261;49675;-75
2023/03/02 08:29:38;;;;;;;;;42.00;33.00;24.20;37.70;;;;;;109705;1261;49863;-67
2023/03/02 08:32:05;;;;;;;;;30.00;28.00;24.20;37.80;;;;;;109762;1256;46106;-66
2023/03/02 08:34:31;;;;;;;;;34.00;29.00;24.20;37.70;;;;;;110087;1255;55959;-66
2023/03/02 08:36:57;;;;;;;;;36.00;32.50;24.20;37.70;;;;;;109906;1260;54069;-67
2023/03/02 08:39:23;;;;;;;;;40.00;33.00;24.30;37.90;;;;;;109961;1260;49799;-71
2023/03/02 08:41:51;;;;;;;;;30.50;29.00;24.30;37.80;;;;;;110123;1256;50341;-70
2023/03/02 08:44:19;;;;;;;;;39.50;32.50;24.40;37.70;;;;;;109887;1261;46059;-69
2023/03/02 08:46:46;;;;;;;;;37.00;31.00;24.50;37.90;;;;;;105340;1260;3010965;-66
2023/03/02 08:49:12;;;;;;;;;33.00;29.50;24.50;37.60;;;;;;109958;1260;36632;-69
2023/03/02 08:51:38;;;;;;;;;36.33;31.67;24.60;37.60;;;;;;109881;1261;49656;-69
2023/03/02 08:54:05;;;;;;;;;36.50;32.50;24.60;37.50;;;;;;109963;1259;45991;-68
2023/03/02 08:56:33;;;;;;;;;39.67;32.00;24.70;37.60;;;;;;109972;1255;55891;-65
2023/03/02 08:59:05;;;;;;;;;36.00;30.00;24.80;37.50;;;;;;109988;1259;54347;-68
2023/03/02 09:01:33;;;;;;;;;37.00;32.00;24.90;37.40;;;;;;110028;1255;49490;-67
2023/03/02 09:04:00;;;;;;;;;31.50;29.00;24.90;37.30;;;;;;109938;1260;49309;-67
2023/03/02 09:06:28;;;;;;;;;35.50;31.50;25.00;37.50;;;;;;109682;1256;46893;-65
2023/03/02 09:08:55;;;;;;;;;39.50;35.00;25.10;37.30;;;;;;109965;1260;55920;-64
2023/03/02 09:11:21;;;;;;;;;37.00;32.00;25.10;37.90;;;;;;110083;1255;54043;-68
2023/03/02 09:13:48;;;;;;;;;32.00;30.00;25.10;37.50;;;;;;110048;1260;48886;-66
2023/03/02 09:16:15;;;;;;;;;31.00;29.00;25.20;37.80;;;;;;109915;1260;50477;-66
2023/03/02 09:18:41;;;;;;;;;33.00;29.00;25.20;37.50;;;;;;109848;1259;45985;-67
2023/03/02 09:21:09;;;;;;;;;37.33;31.00;25.20;37.60;;;;;;109817;1259;56065;-69
2023/03/02 09:23:35;;;;;;;;;42.00;32.00;25.30;37.60;;;;;;109909;1257;54702;-67
2023/03/02 09:26:03;;;;;;;;;46.00;36.00;25.40;37.50;;;;;;109938;1255;49936;-64
2023/03/02 09:28:30;;;;;;;;;36.50;31.00;25.50;37.50;;;;;;109774;1257;50678;-65
2023/03/02 09:30:58;;;;;;;;;39.50;31.00;25.50;37.10;;;;;;109843;1259;46128;-68
2023/03/02 09:33:24;;;;;;;;;37.00;30.00;25.60;37.00;;;;;;110162;1259;55921;-64
2023/03/02 09:35:51;;;;;;;;;41.00;34.00;25.80;36.90;;;;;;109647;1259;53920;-68
2023/03/02 09:38:17;;;;;;;;;36.00;32.00;25.90;36.80;;;;;;109784;1255;49155;-67
2023/03/02 09:41:18;;;;;;;;;38.50;30.00;25.90;36.80;;;;;;109674;1260;49522;-65
2023/03/02 09:44:20;;;;;;;;;32.00;28.50;26.00;36.90;;;;;;109983;1259;46026;-66
2023/03/02 09:47:21;;;;;;;;;34.50;30.50;26.10;36.90;;;;;;109804;1260;55404;-65
2023/03/02 09:50:04;;;;;;;;;33.00;29.00;26.20;36.80;;;;;;109778;1257;54222;-65
2023/03/02 09:52:35;;;;;;;;;35.00;30.00;26.40;36.80;;;;;;110212;1255;50464;-63
2023/03/02 09:55:23;;;;;;;;;34.00;32.00;26.50;36.80;;;;;;109714;1255;49347;-65
2023/03/02 09:57:49;;;;;;;;;27.50;25.50;26.60;36.60;;;;;;109730;1260;45864;-67
2023/03/02 10:00:23;;;;;;;;;32.50;30.00;26.60;36.50;;;;;;109705;1260;55142;-68
2023/03/02 10:02:56;;;;;;;;;36.00;33.00;26.70;36.90;;;;;;109886;1260;53320;-64
2023/03/02 10:05:27;;;;;;;;;25.00;22.00;26.80;36.50;;;;;;109497;1258;49528;-66
2023/03/02 10:07:54;;;;;;;;;30.00;23.00;26.80;37.00;;;;;;109750;1260;49781;-65
2023/03/02 10:10:56;;;;;;;;;28.00;24.00;26.90;36.60;;;;;;109719;1259;45617;-68
2023/03/02 10:13:42;;;;;;;;;25.67;24.67;27.00;36.70;;;;;;110001;1255;55434;-67
2023/03/02 10:16:14;;;;;;;;;27.00;26.00;27.00;36.40;;;;;;109710;1260;54332;-62
2023/03/02 10:19:06;;;;;;;;;23.00;22.00;27.10;35.50;;;;;;109690;1259;49742;-69
2023/03/02 10:21:39;;;;;;;;;27.00;23.00;27.10;34.90;;;;;;109948;1255;49052;-70
2023/03/02 10:24:39;;;;;;;;;24.00;20.00;27.10;34.40;;;;;;109517;1262;45638;-68
2023/03/02 10:27:41;;;;;;;;;28.50;26.00;27.20;33.90;;;;;;109552;1261;55201;-69
2023/03/02 10:30:26;;;;;;;;;32.00;27.00;27.20;33.90;;;;;;109785;1255;53391;-69
2023/03/02 10:32:55;;;;;;;;;30.00;29.00;27.30;33.50;;;;;;109972;1260;49585;-69
2023/03/02 10:35:23;;;;;;;;;25.00;24.00;27.30;32.40;;;;;;109862;1260;49246;-68
2023/03/02 10:38:05;;;;;;;;;22.50;21.50;27.30;31.80;;;;;;109931;1260;45649;-68
2023/03/02 10:40:38;;;;;;;;;24.00;21.00;27.30;32.30;;;;;;109798;1260;55164;-69
2023/03/02 10:43:06;;;;;;;;;20.00;19.00;27.20;31.90;;;;;;110404;1260;54131;-66
2023/03/02 10:45:33;;;;;;;;;23.00;21.00;27.20;31.70;;;;;;110228;1255;49155;-66
2023/03/02 10:48:05;;;;;;;;;23.00;18.00;27.20;31.70;;;;;;109876;1261;48963;-66
2023/03/02 10:50:32;;;;;;;;;21.00;20.00;27.20;31.70;;;;;;109891;1260;45512;-65
2023/03/02 10:52:58;;;;;;;;;25.00;19.00;27.20;32.40;;;;;;110050;1259;55903;-66
2023/03/02 10:55:25;;;;;;;;;19.00;17.00;27.20;32.20;;;;;;109706;1255;54229;-64
2023/03/02 10:58:06;;;;;;;;;17.00;16.00;27.20;32.30;;;;;;109679;1259;49282;-65
2023/03/02 11:00:33;;;;;;;;;18.00;17.00;27.20;32.50;;;;;;109809;1255;49732;-63
2023/03/02 11:03:03;;;;;;;;;23.50;21.00;27.10;31.70;;;;;;109966;1261;46187;-62
2023/03/02 11:05:29;;;;;;;;;24.00;20.00;27.10;31.10;;;;;;109798;1259;56420;-65
2023/03/02 11:07:57;;;;;;;;;23.00;19.00;27.10;31.20;;;;;;109851;1260;53626;-63
2023/03/02 11:10:30;;;;;;;;;22.50;21.50;27.10;33.10;;;;;;109715;1260;49230;-64
2023/03/02 11:12:58;;;;;;;;;23.50;21.50;27.20;32.80;;;;;;110022;1257;49733;-62
2023/03/02 11:15:39;;;;;;;;;22.00;21.00;27.20;33.00;;;;;;109989;1259;45206;-69
2023/03/02 11:18:34;;;;;;;;;24.00;17.00;27.20;33.40;;;;;;109775;1259;55984;-69
2023/03/02 11:21:03;;;;;;;;;;;27.30;33.10;;;;;;109476;1260;53822;-68
2023/03/02 11:23:32;;;;;;;;;;;27.30;33.10;;;;;;110629;1259;49062;-65
2023/03/02 11:26:04;;;;;;;;;;;27.30;33.40;;;;;;110064;1260;48803;-63
2023/03/02 11:28:53;;;;;;;;;23.00;20.00;27.40;33.30;;;;;;109902;1257;47502;-65
2023/03/02 11:31:41;;;;;;;;;26.00;21.00;27.50;33.50;;;;;;109926;1260;60308;-65
2023/03/02 11:34:10;;;;;;;;;20.50;18.50;27.50;33.70;;;;;;109872;1255;53430;-64
2023/03/02 11:37:01;;;;;;;;;26.00;20.00;27.60;33.90;;;;;;109874;1260;49364;-65
2023/03/02 11:40:12;;;;;;;;;24.00;22.00;27.60;34.00;;;;;;109662;1263;49218;-68
2023/03/02 11:42:41;;;;;;;;;23.00;20.00;27.60;34.10;;;;;;109833;1259;45348;-65
2023/03/02 11:45:13;;;;;;;;;20.00;17.00;27.60;34.20;;;;;;109598;1257;55049;-65
2023/03/02 11:48:05;;;;;;;;;22.00;18.00;27.70;34.00;;;;;;109805;1259;54995;-65
2023/03/02 11:50:45;;;;;;;;;22.00;19.00;27.70;34.10;;;;;;109877;1257;49520;-68
2023/03/02 11:53:15;;;;;;;;;22.00;19.00;27.70;34.30;;;;;;109763;1258;49145;-68
2023/03/02 11:55:47;;;;;;;;;16.00;15.00;27.80;34.20;;;;;;109766;1257;46027;-68
2023/03/02 11:58:23;;;;;;;;;25.00;21.00;27.80;34.10;;;;;;110011;1261;55133;-69
2023/03/02 12:00:50;;;;;;;;;20.33;18.67;27.90;34.30;;;;;;109892;1260;53442;-66
2023/03/02 12:03:16;;;;;;;;;27.00;19.50;27.90;34.30;;;;;;110126;1259;49801;-68
2023/03/02 12:06:21;;;;;;;;;24.50;20.00;27.90;34.40;;;;;;109868;1260;49829;-64
2023/03/02 12:08:50;;;;;;;;;24.00;20.00;28.00;34.40;;;;;;109634;1260;45557;-65
2023/03/02 12:11:16;;;;;;;;;26.00;19.00;28.00;34.20;;;;;;109985;1260;56432;-69
2023/03/02 12:13:49;;;;;;;;;23.00;19.00;28.00;34.30;;;;;;109869;1255;54276;-68
2023/03/02 12:16:33;;;;;;;;;21.00;19.67;28.10;34.40;;;;;;109900;1260;48998;-66
2023/03/02 12:19:12;;;;;;;;;28.00;20.00;28.20;34.30;;;;;;109698;1260;49221;-62
2023/03/02 12:21:40;;;;;;;;;18.50;17.50;28.20;34.30;;;;;;110078;1255;46107;-63
2023/03/02 12:24:23;;;;;;;;;19.00;18.00;28.20;34.10;;;;;;109705;1260;55792;-67
2023/03/02 12:27:14;;;;;;;;;32.00;11.00;28.20;34.10;;;;;;109724;1259;53518;-65
2023/03/02 12:30:03;;;;;;;;;38.00;14.00;28.30;34.00;;;;;;109869;1259;49915;-66
2023/03/02 12:32:30;;;;;;;;;37.00;12.00;28.30;33.80;;;;;;109975;1255;49170;-66